Thunder radar more information blitzortung!


Radar de pluja more information rain snow radar


Visita la nostra xarxa de llocs de meteo:

Template documentation
and downloads

And another site



No particular awareness of the weather is required.    There are no Weather-warnings

Pagina Historial Weather Underground text

Diari Resum May 15, 2017 Unitats:  Imperial    Mètric   Tant
« Previous Dia
SegĂźent Dia »
Diari Setmana Mensual Anual Personalitzada
  Maxima: Minima: Media:
Temperatura: 83.3 °F 57.4 °F 71.8 °F
Punt de rosada: 55.9 °F 48.2 °F 51.3 °F
Humitat: 74 % 35 % 50 %
Wind Speed: 13 mph 0 mph 3.6 mph
RĂ fegues de vent: 13 mph - -
Vent:- - SSE
Pression baro: 30.4 in 30.3 in -
Precipitacions: 0 in    
Historical Graphs
 
 
Dades de taula per May 15, 2017
Temps Temperatura Punt de rosada Pression baro Vent Wind Speed RĂ fegues de vent Humitat Rainfall Rate (Hourly)
00:04 62.8 °F 50 °F 30.3 in Calm     63 % 0 in
00:05 57.6 °F 48.9 °F 30.3 in WSW 1 mph 2 mph 73 % 0 in
00:15 57.4 °F 49.3 °F 30.3 in Calm     74 % 0 in
00:25 57.6 °F 48.9 °F 30.3 in Calm   1 mph 73 % 0 in
00:35 57.6 °F 49.3 °F 30.3 in Calm     74 % 0 in
00:45 57.4 °F 49.3 °F 30.3 in Calm     74 % 0 in
00:55 57.7 °F 49.5 °F 30.3 in Calm     74 % 0 in
01:05 57.7 °F 49.5 °F 30.3 in Calm     74 % 0 in
01:15 57.4 °F 49.3 °F 30.3 in WSW 1 mph 2 mph 74 % 0 in
01:25 57.4 °F 49.3 °F 30.3 in Calm   1 mph 74 % 0 in
01:35 57.6 °F 49.3 °F 30.3 in Calm     74 % 0 in
01:45 57.7 °F 49.5 °F 30.3 in Calm     74 % 0 in
01:55 57.4 °F 49.3 °F 30.3 in North 2 mph 2 mph 74 % 0 in
02:05 57.7 °F 49.5 °F 30.3 in Calm   2 mph 74 % 0 in
02:15 57.7 °F 49.1 °F 30.3 in East 2 mph 2 mph 73 % 0 in
02:25 57.4 °F 48.7 °F 30.3 in SW 2 mph 3 mph 73 % 0 in
02:35 57.9 °F 49.3 °F 30.3 in SW 2 mph 3 mph 73 % 0 in
02:45 58.5 °F 50.2 °F 30.4 in SW 1 mph 2 mph 74 % 0 in
02:55 59.4 °F 51.1 °F 30.4 in Calm   2 mph 74 % 0 in
03:05 61 °F 52.3 °F 30.4 in Calm   2 mph 73 % 0 in
03:15 61.5 °F 52 °F 30.4 in SSW 2 mph 3 mph 71 % 0 in
03:25 61.2 °F 51.3 °F 30.4 in SW 1 mph 2 mph 70 % 0 in
03:35 61.3 °F 51.4 °F 30.4 in SW 1 mph 2 mph 70 % 0 in
03:45 63.7 °F 53.2 °F 30.4 in SSW 1 mph 1 mph 69 % 0 in
03:55 64.6 °F 53.8 °F 30.4 in South 1 mph 3 mph 68 % 0 in
04:05 66.2 °F 54.1 °F 30.4 in ESE 1 mph 3 mph 65 % 0 in
04:15 66 °F 54 °F 30.4 in ENE 2 mph 4 mph 65 % 0 in
04:25 66.9 °F 54 °F 30.4 in NE 3 mph 3 mph 63 % 0 in
04:35 67.3 °F 54.3 °F 30.4 in NE 2 mph 3 mph 63 % 0 in
04:45 68 °F 54 °F 30.4 in NE 1 mph 4 mph 61 % 0 in
04:55 68.4 °F 53.4 °F 30.4 in NNE 3 mph 5 mph 59 % 0 in
05:05 69.6 °F 54.7 °F 30.4 in NNE 1 mph 6 mph 59 % 0 in
05:15 70.9 °F 55.4 °F 30.4 in NE 2 mph 3 mph 58 % 0 in
05:25 71.6 °F 55 °F 30.4 in NE 2 mph 4 mph 56 % 0 in
05:35 72.3 °F 55.8 °F 30.4 in ENE 2 mph 3 mph 56 % 0 in
05:45 72.5 °F 55.4 °F 30.4 in ENE 1 mph 3 mph 55 % 0 in
10:54 73.9 °F 55.8 °F 30.4 in ENE 3.5 mph 3.5 mph 53 % 0 in
10:59 73.9 °F 55.2 °F 30.4 in NE 2.3 mph 2.6 mph 52 % 0 in
11:04 74.8 °F 55.9 °F 30.4 in ESE 2.4 mph 2.4 mph 52 % 0 in
11:09 75.2 °F 55.8 °F 30.4 in ESE 5.8 mph 5.8 mph 51 % 0 in
11:14 74.8 °F 54.9 °F 30.4 in ENE 5.6 mph 5.6 mph 50 % 0 in
11:19 75.4 °F 54.9 °F 30.4 in NNE 1.4 mph   49 % 0 in
11:24 75.7 °F 55.2 °F 30.4 in ESE 3.5 mph 3.5 mph 49 % 0 in
11:29 75.7 °F 54.7 °F 30.4 in ENE 3.5 mph 3.5 mph 48 % 0 in
11:34 75.9 °F 54.9 °F 30.4 in ENE 6.9 mph 6.9 mph 48 % 0 in
11:39 75.7 °F 54.7 °F 30.4 in ESE 4 mph 4 mph 48 % 0 in
11:44 75.9 °F 54.1 °F 30.4 in NNE 5.8 mph 5.8 mph 47 % 0 in
11:49 76.5 °F 54.7 °F 30.4 in NNE 3.5 mph 3.5 mph 47 % 0 in
11:54 75.9 °F 53.6 °F 30.4 in East 8.1 mph 8.1 mph 46 % 0 in
11:59 75.9 °F 54.1 °F 30.4 in NNE 4.6 mph 4.6 mph 47 % 0 in
12:04 76.5 °F 54.7 °F 30.4 in East 4.6 mph 4.6 mph 47 % 0 in
12:09 76.8 °F 54.5 °F 30.4 in ENE 3.5 mph   46 % 0 in
12:14 77 °F 54 °F 30.4 in SE 6 mph 6 mph 45 % 0 in
12:19 77 °F 54 °F 30.4 in ENE 2.9 mph 2.9 mph 45 % 0 in
12:24 77.4 °F 54.3 °F 30.4 in NE 3.5 mph 3.5 mph 45 % 0 in
12:29 78.8 °F 55.8 °F 30.4 in North 1.2 mph   45 % 0 in
12:34 79 °F 55.2 °F 30.4 in ESE 4.9 mph 4.9 mph 44 % 0 in
12:35 78.8 °F 55 °F 30.4 in SW 4.6 mph 4.6 mph 44 % 0 in
12:40 78.3 °F 54 °F 30.4 in ESE 4.6 mph 4.6 mph 43 % 0 in
12:45 77.5 °F 53.2 °F 30.4 in NNW 4.6 mph 4.6 mph 43 % 0 in
12:50 78.6 °F 54.9 °F 30.4 in SE 3.5 mph 3.5 mph 44 % 0 in
12:55 78.8 °F 54.3 °F 30.4 in NE 5.8 mph 5.8 mph 43 % 0 in
13:00 78.6 °F 54.1 °F 30.4 in ENE 4.6 mph 4.6 mph 43 % 0 in
13:05 78.1 °F 53.1 °F 30.4 in NE 5.8 mph 5.8 mph 42 % 0 in
13:10 78.4 °F 53.4 °F 30.3 in SW 4.9 mph 4.9 mph 42 % 0 in
13:15 79.5 °F 54.3 °F 30.3 in East 1.2 mph   42 % 0 in
13:20 79.7 °F 54.7 °F 30.3 in South 5.8 mph 5.8 mph 42 % 0 in
13:25 79 °F 54 °F 30.3 in ESE 6.2 mph 6.2 mph 42 % 0 in
13:30 79 °F 53.2 °F 30.3 in ESE 8.1 mph 8.1 mph 41 % 0 in
13:35 78.6 °F 52.3 °F 30.3 in SE 5.8 mph 5.8 mph 40 % 0 in
13:40 78.6 °F 52.3 °F 30.3 in SSE 8.1 mph 8.1 mph 40 % 0 in
13:45 79.7 °F 53.2 °F 30.3 in South 6.9 mph 6.9 mph 40 % 0 in
13:50 79 °F 53.2 °F 30.3 in SE 10.4 mph 10.4 mph 41 % 0 in
13:55 78.3 °F 52 °F 30.3 in East 7.6 mph 7.6 mph 40 % 0 in
14:00 78.6 °F 52.9 °F 30.3 in SE 5.9 mph 5.9 mph 41 % 0 in
14:05 78.3 °F 52 °F 30.3 in SSW 9.2 mph 9.2 mph 40 % 0 in
14:10 78.3 °F 52 °F 30.3 in ENE 11.5 mph 11.5 mph 40 % 0 in
14:15 79 °F 52.5 °F 30.3 in South 5.8 mph 5.8 mph 40 % 0 in
14:20 79.5 °F 53.8 °F 30.3 in ESE 6.2 mph 6.2 mph 41 % 0 in
14:25 79.2 °F 52.9 °F 30.3 in ENE 8.1 mph 8.1 mph 40 % 0 in
14:30 79.3 °F 52.9 °F 30.3 in SE 6.9 mph 6.9 mph 40 % 0 in
14:35 79.3 °F 52.9 °F 30.3 in ESE 13 mph 13 mph 40 % 0 in
14:40 79 °F 52 °F 30.3 in ESE 11.5 mph 11.5 mph 39 % 0 in
14:45 79.5 °F 53.1 °F 30.3 in NE 5.8 mph 5.8 mph 40 % 0 in
14:50 79.5 °F 52.3 °F 30.3 in SE 6.9 mph 6.9 mph 39 % 0 in
14:55 79 °F 52 °F 30.3 in SSW 11.5 mph 11.5 mph 39 % 0 in
15:00 79.7 °F 52.5 °F 30.3 in South 8.1 mph 8.1 mph 39 % 0 in
15:01 79.7 °F 51.8 °F 30.3 in ESE 8.1 mph 8.1 mph 38 % 0 in
15:06 79.3 °F 52.2 °F 30.3 in SSE 9.2 mph 9.2 mph 39 % 0 in
15:11 79.2 °F 52.2 °F 30.3 in SSE 9.2 mph 9.2 mph 39 % 0 in
15:16 78.4 °F 51.4 °F 30.3 in SE 11.5 mph 11.5 mph 39 % 0 in
15:21 78.4 °F 51.4 °F 30.3 in ESE 8.1 mph 8.1 mph 39 % 0 in
15:26 79.3 °F 51.4 °F 30.3 in ESE 5.8 mph 5.8 mph 38 % 0 in
15:31 79.2 °F 52.2 °F 30.3 in ESE 5.8 mph 5.8 mph 39 % 0 in
15:36 81 °F 53.1 °F 30.3 in SSW 3.5 mph 3.5 mph 38 % 0 in
15:41 80.8 °F 52.2 °F 30.3 in North 6.9 mph 6.9 mph 37 % 0 in
15:46 82.4 °F 54.1 °F 30.3 in West 10.9 mph 10.9 mph 38 % 0 in
15:51 82.6 °F 52.9 °F 30.3 in WSW 6.9 mph 6.9 mph 36 % 0 in
15:56 82.8 °F 53.8 °F 30.3 in SSE 3.3 mph 3.3 mph 37 % 0 in
16:01 83.3 °F 54.3 °F 30.3 in West 5.4 mph 5.4 mph 37 % 0 in
16:06 82 °F 52.3 °F 30.3 in SW 6.9 mph 6.9 mph 36 % 0 in
16:11 82 °F 52.3 °F 30.3 in SW 9.2 mph 9.2 mph 36 % 0 in
16:16 82.4 °F 52.9 °F 30.3 in WSW 3.5 mph 3.5 mph 36 % 0 in
16:21 82.6 °F 52.9 °F 30.3 in SW 8.1 mph 8.1 mph 36 % 0 in
16:26 81.7 °F 51.4 °F 30.3 in WSW 6.9 mph 6.9 mph 35 % 0 in
16:31 82.4 °F 52.9 °F 30.3 in NE 3.5 mph 3.5 mph 36 % 0 in
16:36 82.8 °F 53.1 °F 30.3 in South 5.8 mph 5.8 mph 36 % 0 in
16:41 82 °F 52.3 °F 30.3 in SW 8.1 mph 8.1 mph 36 % 0 in
16:46 81 °F 50.7 °F 30.3 in WSW 6.9 mph 6.9 mph 35 % 0 in
16:51 81.1 °F 50.9 °F 30.3 in South 10.4 mph 10.4 mph 35 % 0 in
16:56 80.8 °F 50.5 °F 30.3 in WSW 8.1 mph 8.1 mph 35 % 0 in
17:01 80.4 °F 50.4 °F 30.3 in SSW 9.2 mph 9.2 mph 35 % 0 in
17:06 81 °F 50.7 °F 30.3 in WNW 5.8 mph 5.8 mph 35 % 0 in
17:11 81.1 °F 50.9 °F 30.3 in SSW 6.4 mph 6.4 mph 35 % 0 in
17:16 80.8 °F 50.5 °F 30.3 in West 5.8 mph 5.8 mph 35 % 0 in
17:21 80.6 °F 50.4 °F 30.3 in West 5.4 mph 5.4 mph 35 % 0 in
17:26 80.8 °F 50.5 °F 30.3 in West 13 mph 13 mph 35 % 0 in
17:31 79.7 °F 50.4 °F 30.3 in WSW 8.1 mph 8.1 mph 36 % 0 in
17:36 79.9 °F 50.5 °F 30.3 in WSW 10.4 mph 10.4 mph 36 % 0 in
17:41 79.3 °F 50.2 °F 30.3 in South 8.1 mph 8.1 mph 36 % 0 in
17:46 79.7 °F 50.4 °F 30.3 in WSW 6.2 mph 6.2 mph 36 % 0 in
17:51 79.2 °F 49.8 °F 30.3 in SSW 8.1 mph 8.1 mph 36 % 0 in
17:56 79 °F 50.5 °F 30.3 in WSW 8.1 mph 8.1 mph 37 % 0 in
18:01 78.6 °F 49.5 °F 30.3 in SW 8.1 mph 8.1 mph 36 % 0 in
18:06 79 °F 50.5 °F 30.3 in SSE 5.8 mph 5.8 mph 37 % 0 in
18:11 79 °F 50.5 °F 30.3 in SSW 5.8 mph 5.8 mph 37 % 0 in
18:16 78.8 °F 50.4 °F 30.3 in SW 9.2 mph 9.2 mph 37 % 0 in
18:21 77.9 °F 49.5 °F 30.3 in SW 8.1 mph 8.1 mph 37 % 0 in
18:26 78.1 °F 49.6 °F 30.3 in SW 8.1 mph 8.1 mph 37 % 0 in
18:27 78.1 °F 49.6 °F 30.3 in SW 8.1 mph 8.1 mph 37 % 0 in
18:32 78.1 °F 50.4 °F 30.3 in SSW 6.9 mph 6.9 mph 38 % 0 in
18:37 78.8 °F 51.1 °F 30.3 in SSW 5.8 mph 5.8 mph 38 % 0 in
18:42 78.1 °F 50.4 °F 30.3 in WSW 6.9 mph 6.9 mph 38 % 0 in
18:47 77.4 °F 49.8 °F 30.3 in SW 6.9 mph 6.9 mph 38 % 0 in
18:52 77.4 °F 49.8 °F 30.3 in SSW 7.6 mph 7.6 mph 38 % 0 in
18:57 77 °F 49.5 °F 30.3 in SW 5.9 mph 5.9 mph 38 % 0 in
19:02 76.6 °F 49.8 °F 30.3 in SW 5.8 mph 5.8 mph 39 % 0 in
19:07 76.5 °F 49.6 °F 30.3 in WSW 5.8 mph 5.8 mph 39 % 0 in
19:12 76.8 °F 50 °F 30.3 in SW 7.1 mph 7.1 mph 39 % 0 in
19:17 76.3 °F 49.5 °F 30.3 in SW 4.6 mph 4.6 mph 39 % 0 in
19:22 75.9 °F 49.8 °F 30.3 in WSW 2.3 mph 2.4 mph 40 % 0 in
19:25 64.8 °F 50.5 °F 30.3 in Calm   2 mph 60 % 0 in
19:27 75.6 °F 49.5 °F 30.3 in SSW 5.8 mph 5.8 mph 40 % 0 in
19:32 75.6 °F 49.5 °F 30.3 in WSW 1.2 mph 1.2 mph 40 % 0 in
19:35 64.2 °F 50.5 °F 30.3 in Calm     61 % 0 in
19:37 75.2 °F 49.3 °F 30.3 in SSE 3.5 mph 3.5 mph 40 % 0 in
19:42 75 °F 49.1 °F 30.3 in SW 2.6 mph 2.6 mph 40 % 0 in
19:45 64 °F 50.4 °F 30.3 in Calm     61 % 0 in
19:47 74.7 °F 49.5 °F 30.3 in SW 2.3 mph   41 % 0 in
19:52 74.5 °F 49.3 °F 30.3 in West 2.3 mph 2.3 mph 41 % 0 in
19:55 63.7 °F 50 °F 30.3 in Calm   1 mph 61 % 0 in
19:57 74.3 °F 49.1 °F 30.3 in SW 2.3 mph 2.3 mph 41 % 0 in
19:58 74.3 °F 49.1 °F 30.3 in SSW 2.3 mph 2.3 mph 41 % 0 in
20:03 73.9 °F 48.7 °F 30.3 in SW 2.3 mph 2.4 mph 41 % 0 in
20:05 63.7 °F 50.4 °F 30.3 in Calm   1 mph 62 % 0 in
20:08 73.9 °F 48.7 °F 30.3 in WSW 3.3 mph 3.3 mph 41 % 0 in
20:13 73.8 °F 48.6 °F 30.3 in SW 3.3 mph 3.3 mph 41 % 0 in
20:15 63.3 °F 50.2 °F 30.3 in Calm     62 % 0 in
20:18 73.4 °F 48.4 °F 30.3 in SW 3.5 mph 3.5 mph 41 % 0 in
20:23 73 °F 49.3 °F 30.3 in SSW 2.3 mph 2.3 mph 43 % 0 in
20:25 63.1 °F 50.4 °F 30.3 in Calm   1 mph 63 % 0 in
20:28 72.9 °F 49.1 °F 30.3 in WSW 1.2 mph   43 % 0 in
20:33 72.7 °F 48.9 °F 30.3 in WSW 1.4 mph   43 % 0 in
20:35 63 °F 50.2 °F 30.3 in NNE 1 mph 2 mph 63 % 0 in
20:38 72.3 °F 48.6 °F 30.3 in SW 1.2 mph 1.2 mph 43 % 0 in
20:43 72.1 °F 48.9 °F 30.3 in SW 1.2 mph   44 % 0 in
20:45 62.8 °F 50 °F 30.3 in Calm   1 mph 63 % 0 in
20:48 71.6 °F 48.6 °F 30.3 in Calm     44 % 0 in
20:53 71.4 °F 48.4 °F 30.3 in SW 1.2 mph   44 % 0 in
20:55 62.8 °F 50.4 °F 30.3 in East 1 mph 2 mph 64 % 0 in
20:58 71.1 °F 48.6 °F 30.3 in SW 1.2 mph   45 % 0 in
21:03 70.7 °F 48.4 °F 30.3 in SW 1.2 mph 1.4 mph 45 % 0 in
21:05 62.6 °F 50.2 °F 30.3 in ENE 1 mph 2 mph 64 % 0 in
21:08 70.5 °F 48.7 °F 30.3 in SW 1.2 mph   46 % 0 in
21:13 70.2 °F 48.4 °F 30.3 in WSW 2.3 mph 2.3 mph 46 % 0 in
21:15 62.4 °F 50.5 °F 30.3 in Calm   1 mph 65 % 0 in
21:18 69.8 °F 48.7 °F 30.3 in East 1.6 mph   47 % 0 in
21:23 69.8 °F 48.7 °F 30.3 in ENE 1.2 mph 1.2 mph 47 % 0 in
21:25 62.1 °F 50.2 °F 30.3 in Calm     65 % 0 in
21:28 69.6 °F 49.6 °F 30.3 in Calm     49 % 0 in
21:33 69.3 °F 49.3 °F 30.3 in NE 1.2 mph 1.2 mph 49 % 0 in
21:35 61.9 °F 50.4 °F 30.3 in Calm     66 % 0 in
21:38 69.3 °F 49.8 °F 30.3 in NE 1.6 mph 1.6 mph 50 % 0 in
21:43 68.9 °F 49.5 °F 30.3 in NE 2.3 mph 2.3 mph 50 % 0 in
21:45 61.2 °F 49.3 °F 30.3 in ENE 2 mph 3 mph 65 % 0 in
21:48 68.7 °F 49.3 °F 30.3 in ENE 2.3 mph 2.3 mph 50 % 0 in
21:53 68.5 °F 49.6 °F 30.3 in ENE 1.6 mph 1.6 mph 51 % 0 in
21:55 60.6 °F 49.6 °F 30.3 in Calm   3 mph 67 % 0 in
21:58 68.4 °F 49.5 °F 30.3 in NE 1.2 mph 1.2 mph 51 % 0 in
22:03 68.2 °F 49.5 °F 30.3 in NNE 2.3 mph 2.3 mph 51 % 0 in
22:05 60.4 °F 49.5 °F 30.3 in SW 1 mph 2 mph 67 % 0 in
22:08 68 °F 49.6 °F 30.3 in ENE 2.3 mph 2.3 mph 52 % 0 in
22:13 67.6 °F 49.8 °F 30.3 in ENE 2.3 mph 2.3 mph 53 % 0 in
22:15 60.1 °F 49.1 °F 30.3 in SW 2 mph 2 mph 67 % 0 in
22:18 67.6 °F 49.8 °F 30.3 in NE 1.2 mph 1.2 mph 53 % 0 in
22:23 67.5 °F 49.6 °F 30.3 in North 2.3 mph 2.3 mph 53 % 0 in
22:25 59.2 °F 48.2 °F 30.3 in SW 2 mph 3 mph 67 % 0 in
22:28 67.3 °F 50.2 °F 30.3 in NNE 2.3 mph 2.3 mph 54 % 0 in
22:33 67.1 °F 49.8 °F 30.3 in Calm     54 % 0 in
22:35 59.5 °F 49.5 °F 30.3 in Calm   3 mph 69 % 0 in
22:38 66.9 °F 50.2 °F 30.3 in Calm     55 % 0 in
22:43 66.7 °F 50.2 °F 30.3 in Calm     55 % 0 in
22:45 59.7 °F 49.5 °F 30.3 in Calm   2 mph 69 % 0 in
22:48 66.7 °F 50.2 °F 30.3 in Calm     55 % 0 in
22:53 66.7 °F 50.5 °F 30.3 in NNE 2.3 mph 2.3 mph 56 % 0 in
22:55 60.3 °F 50.4 °F 30.3 in WSW 1 mph 1 mph 70 % 0 in
22:58 66.6 °F 50.4 °F 30.3 in NNW 1.2 mph   56 % 0 in
23:03 66.4 °F 50.7 °F 30.3 in Calm     57 % 0 in
23:05 60.3 °F 50 °F 30.3 in Calm   1 mph 69 % 0 in
23:08 66.2 °F 50.5 °F 30.3 in Calm     57 % 0 in
23:13 66 °F 50.7 °F 30.3 in Calm     58 % 0 in
23:15 60.1 °F 49.8 °F 30.3 in North 1 mph 2 mph 69 % 0 in
23:18 65.8 °F 50.5 °F 30.3 in Calm     58 % 0 in
23:23 65.8 °F 51.1 °F 30.3 in Calm     59 % 0 in
23:25 59.7 °F 49.8 °F 30.3 in Calm   1 mph 70 % 0 in
23:28 65.7 °F 50.9 °F 30.3 in Calm     59 % 0 in
23:33 65.7 °F 50.9 °F 30.3 in Calm     59 % 0 in
23:35 59.5 °F 49.5 °F 30.3 in SW 1 mph 2 mph 69 % 0 in
23:38 65.5 °F 50.7 °F 30.3 in Calm     59 % 0 in
23:43 65.5 °F 50.7 °F 30.3 in Calm     59 % 0 in
23:45 59.7 °F 49.5 °F 30.3 in Calm   2 mph 69 % 0 in
23:48 65.5 °F 50.7 °F 30.3 in Calm     59 % 0 in
23:53 65.5 °F 50.7 °F 30.3 in NNW 1.2 mph   59 % 0 in
23:55 60.1 °F 49.8 °F 30.3 in Calm   2 mph 69 % 0 in
23:58 65.3 °F 51.1 °F 30.3 in Calm     60 % 0 in
Meteo Sesrovires
Elogis d' Weather Underground - 3.75 mb

Guio original per  Jim McMurry - jmcmurry@mwt.net Adaptat per a la plantilla per  Wim van der Kuil - Leuven-Template.eu

Trobareu la nostra informacio del temps tambe a:

Weather Underground

AWEKAS